createdAt,value
2023-04-16T00:00:58.027Z,84.79
2023-04-16T00:06:10.929Z,84.91
2023-04-16T00:11:14.131Z,85.16
2023-04-16T00:16:17.206Z,85.81
2023-04-16T00:21:19.746Z,85.89
2023-04-16T00:26:22.795Z,85.63
2023-04-16T00:31:34.142Z,85.16
2023-04-16T00:36:37.629Z,85.23
2023-04-16T00:41:41.549Z,85.20
2023-04-16T00:46:46.318Z,85.10
2023-04-16T00:51:48.812Z,84.68
2023-04-16T00:56:52.544Z,84.67
2023-04-16T01:01:55.759Z,84.48
2023-04-16T01:06:59.589Z,84.40
2023-04-16T01:12:02.499Z,84.36
2023-04-16T01:17:06.533Z,84.14
2023-04-16T01:22:09.865Z,84.32
2023-04-16T01:27:13.613Z,84.21
2023-04-16T01:32:17.488Z,84.08
2023-04-16T01:37:21.056Z,84.16
2023-04-16T01:42:23.102Z,84.36
2023-04-16T01:47:26.669Z,84.62
2023-04-16T01:52:29.492Z,84.00
2023-04-16T01:57:32.429Z,84.30
2023-04-16T02:02:35.972Z,84.47
2023-04-16T02:07:39.950Z,84.38
2023-04-16T02:12:43.733Z,84.52
2023-04-16T02:17:48.576Z,84.96
2023-04-16T02:22:51.222Z,84.69
2023-04-16T02:27:55.232Z,84.69
2023-04-16T02:32:58.143Z,84.83
2023-04-16T02:38:04.823Z,84.80
2023-04-16T02:43:07.369Z,84.99
2023-04-16T02:48:10.260Z,85.21
2023-04-16T02:53:14.928Z,85.53
2023-04-16T02:58:17.880Z,85.80
2023-04-16T03:03:21.688Z,86.09
2023-04-16T03:08:24.770Z,86.43
2023-04-16T03:13:27.773Z,86.67
2023-04-16T03:18:30.668Z,86.87
2023-04-16T03:23:35.877Z,87.41
2023-04-16T03:28:39.831Z,87.58
2023-04-16T03:33:43.380Z,87.72
2023-04-16T03:38:47.226Z,87.57
2023-04-16T03:43:51.699Z,87.90
2023-04-16T03:48:55.752Z,88.19
2023-04-16T03:53:59.617Z,88.71
2023-04-16T03:59:03.056Z,88.57
2023-04-16T04:04:10.175Z,89.10
2023-04-16T04:09:14.032Z,88.69
2023-04-16T04:14:16.301Z,88.65
2023-04-16T04:19:19.522Z,89.00
2023-04-16T04:24:23.599Z,89.10
2023-04-16T04:29:27.153Z,88.72
2023-04-16T04:34:31.318Z,88.96
2023-04-16T04:39:34.397Z,88.56
2023-04-16T04:44:36.599Z,88.47
2023-04-16T04:49:40.492Z,88.41
2023-04-16T04:54:45.480Z,88.73
2023-04-16T04:59:49.836Z,88.98
2023-04-16T05:04:53.388Z,88.38
2023-04-16T05:09:57.945Z,89.02
2023-04-16T05:15:01.668Z,88.48
2023-04-16T05:20:06.179Z,88.60
2023-04-16T05:25:09.130Z,88.25
2023-04-16T05:30:12.637Z,88.10
2023-04-16T05:35:17.312Z,88.52
2023-04-16T05:40:20.500Z,88.11
2023-04-16T05:45:24.058Z,87.94
2023-04-16T05:50:28.092Z,88.26
2023-04-16T05:55:30.723Z,87.43
2023-04-16T06:00:33.857Z,87.66
2023-04-16T06:05:36.929Z,87.34
2023-04-16T06:10:40.650Z,87.22
2023-04-16T06:15:44.745Z,86.87
2023-04-16T06:20:50.443Z,87.24
2023-04-16T06:25:54.493Z,87.44
2023-04-16T06:31:00.274Z,86.54
2023-04-16T06:36:03.166Z,86.64
2023-04-16T06:41:06.264Z,86.59
2023-04-16T06:46:09.955Z,86.48
2023-04-16T06:51:13.381Z,85.89
2023-04-16T06:56:16.734Z,86.41
2023-04-16T07:01:23.012Z,85.71
2023-04-16T07:06:28.332Z,85.51
2023-04-16T07:11:33.968Z,85.25
2023-04-16T07:16:39.046Z,85.67
2023-04-16T07:21:43.711Z,85.18
2023-04-16T07:26:46.566Z,84.82
2023-04-16T07:31:49.258Z,84.90
2023-04-16T07:36:52.098Z,84.64
2023-04-16T07:41:55.068Z,84.25
2023-04-16T07:46:57.284Z,84.15
2023-04-16T07:52:00.586Z,83.98
2023-04-16T07:57:02.875Z,83.64
2023-04-16T08:02:06.160Z,83.47
2023-04-16T08:07:09.836Z,83.54
2023-04-16T08:12:12.785Z,83.13
2023-04-16T08:17:16.528Z,83.09
2023-04-16T08:22:25.747Z,82.78
2023-04-16T08:27:29.015Z,82.56
2023-04-16T08:32:32.912Z,82.13
2023-04-16T08:37:37.716Z,81.94
2023-04-16T08:42:49.274Z,81.78
2023-04-16T08:47:53.175Z,81.61
2023-04-16T08:53:06.704Z,81.78
2023-04-16T08:58:21.932Z,81.55
2023-04-16T09:03:24.363Z,82.01
2023-04-16T09:08:28.161Z,82.33
2023-04-16T09:13:31.835Z,82.02
2023-04-16T09:18:34.863Z,80.84
2023-04-16T09:23:39.719Z,81.26
2023-04-16T09:28:46.390Z,81.04
2023-04-16T09:34:09.538Z,80.80
2023-04-16T09:39:20.209Z,80.63
2023-04-16T09:44:38.734Z,79.67
2023-04-16T09:49:43.949Z,79.23
2023-04-16T09:54:55.061Z,78.46
2023-04-16T10:00:07.476Z,77.89
2023-04-16T10:05:16.889Z,77.87
2023-04-16T10:10:20.301Z,77.80
2023-04-16T10:15:23.150Z,77.29
2023-04-16T10:20:27.504Z,76.36
2023-04-16T10:25:30.759Z,74.97
2023-04-16T10:30:37.267Z,74.60
2023-04-16T10:35:40.508Z,74.13
2023-04-16T10:40:46.225Z,73.85
2023-04-16T10:45:49.588Z,72.75
2023-04-16T10:51:00.603Z,72.45
2023-04-16T10:56:05.553Z,70.95
2023-04-16T11:01:14.041Z,71.04
2023-04-16T11:06:24.183Z,70.97
2023-04-16T11:11:39.614Z,69.80
2023-04-16T11:16:43.307Z,70.16
2023-04-16T11:21:47.700Z,69.06
2023-04-16T11:26:54.620Z,68.64
2023-04-16T11:31:58.819Z,68.56
2023-04-16T11:37:01.599Z,68.33
2023-04-16T11:42:04.604Z,67.78
2023-04-16T11:47:07.820Z,67.71
2023-04-16T11:52:10.893Z,67.86
2023-04-16T11:57:15.444Z,68.07
2023-04-16T12:02:18.830Z,67.78
2023-04-16T12:07:22.699Z,67.72
2023-04-16T12:12:27.900Z,67.92
2023-04-16T12:17:32.585Z,67.53
2023-04-16T12:22:37.515Z,66.90
2023-04-16T12:27:55.852Z,66.86
2023-04-16T12:33:16.535Z,66.31
2023-04-16T12:38:19.056Z,66.31
2023-04-16T12:43:21.129Z,66.02
2023-04-16T12:48:23.803Z,64.68
2023-04-16T12:53:26.924Z,65.13
2023-04-16T12:58:30.341Z,64.24
2023-04-16T13:03:32.672Z,64.18
2023-04-16T13:49:10.253Z,64.73
2023-04-16T14:13:34.724Z,64.94
2023-04-16T14:18:42.345Z,65.14
2023-04-16T14:23:47.189Z,65.23
2023-04-16T14:28:50.595Z,64.94
2023-04-16T14:33:53.086Z,65.20
2023-04-16T14:38:56.058Z,65.38
2023-04-16T14:44:00.403Z,65.14
2023-04-16T14:49:02.796Z,65.07
2023-04-16T14:54:06.641Z,64.95
2023-04-16T14:59:09.062Z,64.87
2023-04-16T15:04:12.402Z,64.58
2023-04-16T15:09:15.427Z,64.48
2023-04-16T15:14:18.988Z,64.45
2023-04-16T15:19:22.429Z,64.27
2023-04-16T15:24:26.042Z,63.88
2023-04-16T15:29:28.797Z,63.77
2023-04-16T15:34:31.277Z,63.68
2023-04-16T15:39:35.325Z,63.66
2023-04-16T15:44:42.209Z,63.36
2023-04-16T15:49:45.220Z,63.42
2023-04-16T15:54:49.355Z,63.01
2023-04-16T16:00:05.913Z,62.82
2023-04-16T16:05:14.248Z,62.89
2023-04-16T16:10:16.840Z,63.29
2023-04-16T16:15:22.016Z,63.28
2023-04-16T16:20:25.601Z,63.55
2023-04-16T16:25:30.056Z,63.80
2023-04-16T16:30:34.923Z,64.17
2023-04-16T16:35:38.738Z,64.48
2023-04-16T16:40:43.183Z,64.69
2023-04-16T16:45:47.081Z,64.81
2023-04-16T16:50:50.123Z,65.00
2023-04-16T16:55:54.048Z,65.09
2023-04-16T17:00:56.792Z,65.23
2023-04-16T17:06:03.572Z,65.26
2023-04-16T17:11:06.903Z,65.77
2023-04-16T17:16:10.734Z,65.94
2023-04-16T17:21:16.538Z,66.28
2023-04-16T17:26:20.633Z,66.34
2023-04-16T17:31:26.233Z,66.33
2023-04-16T17:36:35.130Z,66.70
2023-04-16T17:41:39.236Z,67.17
2023-04-16T17:46:44.053Z,67.63
2023-04-16T17:51:54.968Z,67.91
2023-04-16T17:57:03.504Z,68.35
2023-04-16T18:02:08.597Z,68.39
2023-04-16T18:07:16.113Z,68.68
2023-04-16T18:12:23.291Z,68.78
2023-04-16T18:17:25.833Z,69.05
2023-04-16T18:22:36.432Z,69.19
2023-04-16T18:27:40.980Z,69.16
2023-04-16T18:33:10.082Z,69.55
2023-04-16T18:38:18.480Z,69.82
2023-04-16T18:43:23.973Z,70.10
2023-04-16T18:48:28.182Z,70.46
2023-04-16T18:53:31.347Z,70.68
2023-04-16T18:58:34.219Z,71.05
2023-04-16T19:03:37.784Z,71.12
2023-04-16T19:08:40.526Z,71.26
2023-04-16T19:13:43.738Z,71.52
2023-04-16T19:18:47.279Z,71.68
2023-04-16T19:23:51.448Z,71.73
2023-04-16T19:28:55.071Z,72.31
2023-04-16T19:33:58.479Z,72.32
2023-04-16T19:39:00.737Z,72.65
2023-04-16T19:44:04.062Z,72.86
2023-04-16T19:49:06.795Z,73.03
2023-04-16T19:54:09.217Z,73.24
2023-04-16T19:59:11.600Z,73.29
2023-04-16T20:04:15.926Z,73.46
2023-04-16T20:09:20.009Z,73.34
2023-04-16T20:14:23.164Z,73.51
2023-04-16T20:19:29.944Z,73.67
2023-04-16T20:24:33.873Z,74.00
2023-04-16T20:29:36.906Z,74.29
2023-04-16T20:34:40.751Z,74.51
2023-04-16T20:39:46.894Z,73.88
2023-04-16T20:44:50.412Z,74.73
2023-04-16T20:49:54.655Z,75.04
2023-04-16T20:54:58.995Z,75.61
2023-04-16T21:00:04.123Z,75.61
2023-04-16T21:05:14.382Z,75.80
2023-04-16T21:10:19.780Z,76.38
2023-04-16T21:15:23.947Z,76.02
2023-04-16T21:20:30.545Z,75.90
2023-04-16T21:25:34.538Z,76.59
2023-04-16T21:30:36.640Z,76.76
2023-04-16T21:35:39.332Z,76.49
2023-04-16T21:40:42.500Z,77.07
2023-04-16T21:45:44.973Z,77.11
2023-04-16T21:50:47.945Z,77.15
2023-04-16T21:55:50.193Z,77.06
2023-04-16T22:00:54.260Z,77.30
2023-04-16T22:06:01.059Z,77.39
2023-04-16T22:11:04.255Z,78.28
2023-04-16T22:16:08.821Z,78.72
2023-04-16T22:21:14.441Z,79.16
2023-04-16T22:26:17.383Z,79.42
2023-04-16T22:31:20.262Z,79.43
2023-04-16T22:36:24.401Z,79.30
2023-04-16T22:41:28.019Z,79.50
2023-04-16T22:46:31.068Z,79.91
2023-04-16T22:51:35.359Z,79.75
2023-04-16T22:56:39.072Z,79.89
2023-04-16T23:01:42.486Z,80.25
2023-04-16T23:06:46.318Z,79.68
2023-04-16T23:11:51.177Z,79.64
2023-04-16T23:16:54.351Z,79.68
2023-04-16T23:22:01.547Z,79.63
2023-04-16T23:27:04.853Z,79.67
2023-04-16T23:32:08.136Z,79.42
2023-04-16T23:37:11.022Z,79.62
2023-04-16T23:42:14.274Z,79.84
2023-04-16T23:47:16.205Z,79.55
2023-04-16T23:52:18.891Z,80.19
2023-04-16T23:57:22.949Z,79.72
